createdAt,value
2022-12-20T00:08:27.000Z,9.34
2022-12-20T00:23:06.000Z,9.87
2022-12-20T00:37:44.000Z,9.84
2022-12-20T00:52:19.000Z,9.53
2022-12-20T01:06:58.000Z,9.45
2022-12-20T01:21:37.000Z,9.25
2022-12-20T01:36:13.000Z,9.29
2022-12-20T01:50:52.000Z,9.2
2022-12-20T02:05:30.000Z,9.27
2022-12-20T02:20:08.000Z,9.42
2022-12-20T02:34:47.000Z,9.55
2022-12-20T02:49:26.000Z,9.55
2022-12-20T03:04:04.000Z,9.83
2022-12-20T03:18:42.000Z,9.53
2022-12-20T03:33:21.000Z,9.58
2022-12-20T03:48:01.000Z,9.63
2022-12-20T04:02:38.000Z,9.49
2022-12-20T04:17:09.000Z,9.49
2022-12-20T04:31:48.000Z,9.53
2022-12-20T04:46:20.000Z,9.74
2022-12-20T05:00:57.000Z,9.5
2022-12-20T05:15:36.000Z,9.81
2022-12-20T05:30:15.000Z,9.97
2022-12-20T05:44:47.000Z,9.56
2022-12-20T05:59:23.000Z,9.71
2022-12-20T06:14:00.000Z,9.46
2022-12-20T06:28:30.000Z,9.54
2022-12-20T06:43:08.000Z,8.92
2022-12-20T06:57:47.000Z,9.39
2022-12-20T07:12:26.000Z,9.64
2022-12-20T07:26:56.000Z,9.66
2022-12-20T07:41:36.000Z,10.15
2022-12-20T07:56:15.000Z,10.06
2022-12-20T08:10:48.000Z,10.43
2022-12-20T08:25:27.000Z,10.43
2022-12-20T08:40:06.000Z,10.28
2022-12-20T08:54:46.000Z,10.41
2022-12-20T09:09:20.000Z,10.35
2022-12-20T09:23:59.000Z,10.87
2022-12-20T09:38:37.000Z,10.95
2022-12-20T09:53:13.000Z,11.4
2022-12-20T10:07:52.000Z,11.8
2022-12-20T10:22:36.000Z,12.14
2022-12-20T10:37:09.000Z,12.25
2022-12-20T10:51:48.000Z,12.54
2022-12-20T11:06:25.000Z,12.55
2022-12-20T11:21:04.000Z,12.51
2022-12-20T11:35:43.000Z,12.53
2022-12-20T11:50:22.000Z,12.84
2022-12-20T12:05:02.000Z,12.66
2022-12-20T12:19:41.000Z,12.96
2022-12-20T12:34:20.000Z,12.85
2022-12-20T12:48:59.000Z,13.06
2022-12-20T13:03:39.000Z,13.79
2022-12-20T13:18:18.000Z,13.73
2022-12-20T13:32:57.000Z,13.17
2022-12-20T13:47:34.000Z,13.25
2022-12-20T14:02:12.000Z,13.3
2022-12-20T14:16:51.000Z,13.21
2022-12-20T14:31:31.000Z,13.54
2022-12-20T14:46:09.000Z,13.58
2022-12-20T15:00:48.000Z,13.06
2022-12-20T15:15:26.000Z,12.9
2022-12-20T15:30:02.000Z,12.6
2022-12-20T15:44:34.000Z,12.67
2022-12-20T15:59:09.000Z,12.93
2022-12-20T16:13:48.000Z,12.89
2022-12-20T16:28:27.000Z,12.72
2022-12-20T16:42:59.000Z,12.7
2022-12-20T16:57:37.000Z,12.78
2022-12-20T17:12:16.000Z,12.77
2022-12-20T17:26:55.000Z,12.89
2022-12-20T17:41:34.000Z,12.9
2022-12-20T17:56:13.000Z,12.96
2022-12-20T18:10:51.000Z,12.67
2022-12-20T18:25:29.000Z,12.3
2022-12-20T18:40:07.000Z,12.24
2022-12-20T18:54:45.000Z,12.43
2022-12-20T19:09:23.000Z,12.43
2022-12-20T19:24:04.000Z,12.35
2022-12-20T19:38:35.000Z,12.51
2022-12-20T19:53:11.000Z,12.46
2022-12-20T20:07:50.000Z,12.46
2022-12-20T20:22:23.000Z,12.33
2022-12-20T20:37:01.000Z,11.98
2022-12-20T20:51:38.000Z,12.02
2022-12-20T21:06:17.000Z,11.94
2022-12-20T21:20:55.000Z,12.11
2022-12-20T21:35:35.000Z,12.1
2022-12-20T21:50:14.000Z,12.13
2022-12-20T22:04:52.000Z,12.12
2022-12-20T22:19:30.000Z,12.44
2022-12-20T22:34:08.000Z,12.19
2022-12-20T22:48:46.000Z,12.04
2022-12-20T23:03:25.000Z,12.25
2022-12-20T23:17:57.000Z,12.24
2022-12-20T23:32:36.000Z,12.18
2022-12-20T23:47:14.000Z,12.31
